Time;durP1;ratioP1;P1;durP2;ratioP2;P2;SDS_P1;SDS_P2;PMS_P1;PMS_P2;Temp;Humidity;BMP_temperature;BMP_pressure;BME280_temperature;BME280_humidity;BME280_pressure;Samples;Min_cycle;Max_cycle;Signal;HPM_P1;HPM_P2
2022/12/02 00:02:26;;;;;;;58.90;28.08;;;3.80;99.90;;;;;;5027666;28;20052;-27
2022/12/02 00:05:09;;;;;;;55.88;26.80;;;3.80;99.90;;;;;;5032331;28;20073;-27
2022/12/02 00:07:35;;;;;;;55.95;26.80;;;3.80;99.90;;;;;;5029908;28;20037;-27
2022/12/02 00:10:18;;;;;;;57.30;27.55;;;3.80;99.90;;;;;;5025898;28;20038;-27
2022/12/02 00:12:44;;;;;;;60.60;28.42;;;3.70;99.90;;;;;;5032894;28;20087;-28
2022/12/02 00:15:29;;;;;;;62.63;28.00;;;3.80;99.90;;;;;;5047818;28;20041;-27
2022/12/02 00:17:55;;;;;;;60.97;28.15;;;3.70;99.90;;;;;;5031921;28;20459;-27
2022/12/02 00:20:21;;;;;;;58.20;27.08;;;3.70;99.90;;;;;;5033211;28;20065;-27
2022/12/02 00:22:46;;;;;;;60.38;27.85;;;3.80;99.90;;;;;;5032343;28;20049;-27
2022/12/02 00:25:12;;;;;;;63.35;27.70;;;3.80;99.90;;;;;;5025669;28;20061;-27
2022/12/02 00:27:38;;;;;;;61.47;27.65;;;3.80;99.90;;;;;;5024819;28;20466;-27
2022/12/02 00:30:04;;;;;;;60.20;26.73;;;3.80;99.90;;;;;;5030462;28;20060;-27
2022/12/02 00:32:30;;;;;;;59.20;27.50;;;3.80;99.90;;;;;;5029781;28;20041;-27
2022/12/02 00:34:56;;;;;;;62.65;27.77;;;3.80;99.90;;;;;;5032572;28;20044;-27
2022/12/02 00:37:21;;;;;;;52.95;26.15;;;3.80;99.90;;;;;;5031819;28;20487;-28
2022/12/02 00:39:47;;;;;;;54.10;27.00;;;3.80;99.90;;;;;;5026198;28;20504;-27
2022/12/02 00:42:13;;;;;;;56.85;26.20;;;3.80;99.90;;;;;;5015496;28;20455;-27
2022/12/02 00:47:22;;;;;;;;;;;3.70;99.90;;;;;;5033986;28;20037;-27
2022/12/02 00:49:48;;;;;;;52.42;24.00;;;3.70;99.90;;;;;;5032103;28;20381;-27
2022/12/02 00:52:14;;;;;;;51.13;23.10;;;3.70;99.90;;;;;;5029247;28;20044;-27
2022/12/02 00:54:39;;;;;;;50.97;23.10;;;3.60;99.90;;;;;;5048635;28;20041;-27
2022/12/02 00:57:05;;;;;;;43.35;21.52;;;3.60;99.90;;;;;;5032226;28;20324;-27
2022/12/02 00:59:31;;;;;;;45.22;20.77;;;3.60;99.90;;;;;;5031916;28;20049;-27
2022/12/02 01:01:57;;;;;;;42.03;20.08;;;3.50;99.90;;;;;;5031486;28;20083;-28
2022/12/02 01:04:22;;;;;;;46.58;21.08;;;3.50;99.90;;;;;;5046816;28;20037;-27
2022/12/02 01:06:48;;;;;;;44.53;21.52;;;3.50;99.90;;;;;;5030969;28;20589;-27
2022/12/02 01:09:14;;;;;;;48.63;22.95;;;3.50;99.90;;;;;;5027726;28;20064;-27
2022/12/02 01:11:40;;;;;;;44.97;21.17;;;3.40;99.90;;;;;;5030922;28;20116;-27
2022/12/02 01:14:05;;;;;;;44.25;22.27;;;3.40;99.90;;;;;;5035311;28;20036;-27
2022/12/02 01:16:31;;;;;;;49.42;22.98;;;3.40;99.90;;;;;;5052568;28;20453;-27
2022/12/02 01:18:57;;;;;;;45.25;20.85;;;3.40;99.90;;;;;;5034518;28;20387;-27
2022/12/02 01:21:22;;;;;;;40.35;20.30;;;3.40;99.90;;;;;;5035530;28;20044;-28
2022/12/02 01:23:48;;;;;;;48.08;22.80;;;3.40;99.90;;;;;;5034680;28;20468;-27
2022/12/02 01:26:14;;;;;;;38.50;19.27;;;3.40;99.90;;;;;;5033919;28;20577;-27
2022/12/02 01:28:40;;;;;;;38.67;19.98;;;3.30;99.90;;;;;;5033278;28;20085;-27
2022/12/02 01:31:06;;;;;;;39.70;19.83;;;3.30;99.90;;;;;;5031773;28;20116;-27
2022/12/02 01:33:32;;;;;;;43.47;19.23;;;3.30;99.90;;;;;;5033849;28;20043;-27
2022/12/02 01:35:57;;;;;;;44.40;20.17;;;3.30;99.90;;;;;;5033619;28;20026;-27
2022/12/02 01:38:23;;;;;;;37.67;18.20;;;3.30;99.90;;;;;;5033300;28;20056;-27
2022/12/02 01:40:49;;;;;;;40.42;19.13;;;3.30;99.90;;;;;;5046792;28;20076;-27
2022/12/02 01:43:15;;;;;;;37.42;19.23;;;3.20;99.90;;;;;;5034819;28;20519;-27
2022/12/02 01:45:42;;;;;;;39.78;19.85;;;3.30;99.90;;;;;;5050887;28;20065;-27
2022/12/02 01:48:08;;;;;;;38.78;19.58;;;3.30;99.90;;;;;;5033648;28;20036;-28
2022/12/02 01:50:34;;;;;;;36.50;18.15;;;3.30;99.90;;;;;;5033966;28;20483;-28
2022/12/02 01:52:59;;;;;;;37.83;18.65;;;3.20;99.90;;;;;;5035912;28;20037;-27
2022/12/02 01:55:27;;;;;;;37.83;19.52;;;3.20;99.90;;;;;;5033794;28;20470;-27
2022/12/02 01:57:55;;;;;;;36.67;18.00;;;3.20;99.90;;;;;;5033776;28;20041;-27
2022/12/02 02:00:21;;;;;;;35.15;17.95;;;3.20;99.90;;;;;;5032481;28;20120;-27
2022/12/02 02:02:47;;;;;;;33.75;17.05;;;3.20;99.90;;;;;;5052128;28;20372;-27
2022/12/02 02:05:22;;;;;;;37.15;17.58;;;3.20;99.90;;;;;;5031920;28;20087;-27
2022/12/02 02:07:52;;;;;;;35.95;17.05;;;3.20;99.90;;;;;;5034744;28;20045;-27
2022/12/02 02:10:19;;;;;;;35.13;17.45;;;3.10;99.90;;;;;;5051394;28;20091;-27
2022/12/02 02:12:45;;;;;;;29.73;16.40;;;3.20;99.90;;;;;;5035245;28;20395;-27
2022/12/02 02:15:13;;;;;;;31.23;16.83;;;3.20;99.90;;;;;;5034609;28;20048;-27
2022/12/02 02:17:39;;;;;;;32.30;16.95;;;3.20;99.90;;;;;;5027140;28;20069;-27
2022/12/02 02:20:09;;;;;;;31.55;17.30;;;3.20;99.90;;;;;;5030214;28;20483;-27
2022/12/02 02:22:48;;;;;;;34.75;17.35;;;3.10;99.90;;;;;;5048715;28;20041;-27
2022/12/02 02:25:16;;;;;;;36.40;18.23;;;3.10;99.90;;;;;;5024133;28;20293;-27
2022/12/02 02:27:52;;;;;;;35.85;17.08;;;3.10;99.90;;;;;;5025322;28;20411;-27
2022/12/02 02:30:18;;;;;;;31.48;16.73;;;3.00;99.90;;;;;;5048979;28;20113;-27
2022/12/02 02:32:44;;;;;;;33.58;17.17;;;3.00;99.90;;;;;;5025419;28;20091;-27
2022/12/02 02:35:10;;;;;;;34.15;17.58;;;3.00;99.90;;;;;;5048912;28;20478;-27
2022/12/02 02:37:36;;;;;;;41.63;19.02;;;3.00;99.90;;;;;;5027598;28;20037;-27
2022/12/02 02:40:02;;;;;;;34.38;18.80;;;3.00;99.90;;;;;;5030311;28;20041;-27
2022/12/02 02:42:28;;;;;;;37.08;18.95;;;3.00;99.90;;;;;;5044899;28;20497;-27
2022/12/02 02:44:53;;;;;;;35.05;18.80;;;3.00;99.90;;;;;;5031446;28;20037;-27
2022/12/02 02:47:19;;;;;;;38.60;19.25;;;3.00;99.90;;;;;;5048459;28;20033;-27
2022/12/02 02:49:45;;;;;;;37.65;18.75;;;3.00;99.90;;;;;;5030786;28;20490;-27
2022/12/02 02:52:11;;;;;;;36.97;18.40;;;3.00;99.90;;;;;;5031945;28;20029;-27
2022/12/02 02:54:37;;;;;;;38.58;20.30;;;3.00;99.90;;;;;;5044872;28;20456;-27
2022/12/02 02:57:03;;;;;;;38.25;20.45;;;3.00;99.90;;;;;;5025415;28;20395;-27
2022/12/02 02:59:28;;;;;;;37.08;19.17;;;3.00;99.90;;;;;;5047920;28;20045;-27
2022/12/02 03:01:55;;;;;;;36.45;19.80;;;3.00;99.90;;;;;;5025734;28;20048;-27
2022/12/02 03:04:22;;;;;;;36.03;18.73;;;3.00;99.90;;;;;;5029820;28;20518;-27
2022/12/02 03:06:49;;;;;;;40.55;19.67;;;3.00;99.90;;;;;;5043772;28;20037;-27
2022/12/02 03:09:18;;;;;;;38.83;19.05;;;3.00;99.90;;;;;;5029590;28;20045;-27
2022/12/02 03:11:48;;;;;;;35.45;19.00;;;3.00;99.90;;;;;;5031037;28;20172;-27
2022/12/02 03:14:16;;;;;;;36.50;19.95;;;3.00;99.90;;;;;;5028146;28;20040;-27
2022/12/02 03:16:43;;;;;;;37.85;19.20;;;3.00;99.90;;;;;;5030936;28;20036;-27
2022/12/02 03:19:09;;;;;;;40.03;20.63;;;2.90;99.90;;;;;;5028536;28;20478;-27
2022/12/02 03:21:35;;;;;;;40.13;20.08;;;2.90;99.90;;;;;;5024843;28;20048;-27
2022/12/02 03:24:03;;;;;;;40.33;20.40;;;2.90;99.90;;;;;;5030422;28;20045;-27
2022/12/02 03:26:29;;;;;;;41.90;20.35;;;2.90;99.90;;;;;;5027384;28;20125;-27
2022/12/02 03:28:56;;;;;;;39.70;20.08;;;3.00;99.90;;;;;;5028385;28;20037;-27
2022/12/02 03:31:22;;;;;;;40.30;20.10;;;2.90;99.90;;;;;;5030893;28;20036;-27
2022/12/02 03:33:49;;;;;;;37.95;19.10;;;3.00;99.90;;;;;;5029492;28;20026;-27
2022/12/02 03:36:15;;;;;;;34.88;19.15;;;3.00;99.90;;;;;;5028741;28;20083;-27
2022/12/02 03:38:42;;;;;;;39.35;19.88;;;2.90;99.90;;;;;;5030266;28;20033;-27
2022/12/02 03:41:08;;;;;;;41.05;19.40;;;3.00;99.90;;;;;;5027467;28;20041;-27
2022/12/02 03:43:34;;;;;;;40.50;19.13;;;2.90;99.90;;;;;;5028388;28;20128;-27
2022/12/02 03:46:01;;;;;;;34.88;18.10;;;2.90;99.90;;;;;;5012094;28;20049;-27
2022/12/02 03:48:27;;;;;;;33.63;17.25;;;2.90;99.90;;;;;;5028678;28;20041;-27
2022/12/02 03:50:53;;;;;;;35.13;17.63;;;3.00;99.90;;;;;;5028814;28;20045;-26
2022/12/02 03:53:21;;;;;;;36.95;19.92;;;2.90;99.90;;;;;;5030294;28;20040;-27
2022/12/02 03:55:47;;;;;;;37.75;17.95;;;2.90;99.90;;;;;;5030757;28;20037;-27
2022/12/02 03:58:13;;;;;;;36.65;18.33;;;2.90;99.90;;;;;;5029855;28;20045;-27
2022/12/02 04:00:39;;;;;;;36.42;18.52;;;3.00;99.90;;;;;;5026846;28;20038;-27
2022/12/02 04:03:05;;;;;;;34.78;18.23;;;2.90;99.90;;;;;;5018420;28;20488;-27
2022/12/02 04:05:31;;;;;;;35.30;17.83;;;2.90;99.90;;;;;;5029592;28;20052;-27
2022/12/02 04:07:57;;;;;;;43.15;19.30;;;2.90;99.90;;;;;;5029543;28;20076;-27
2022/12/02 04:10:23;;;;;;;35.70;18.50;;;2.90;99.90;;;;;;5036373;28;20033;-27
2022/12/02 04:12:48;;;;;;;37.50;18.98;;;2.90;99.90;;;;;;5027108;28;20041;-27
2022/12/02 04:15:15;;;;;;;38.60;18.95;;;2.90;99.90;;;;;;5040595;28;20109;-26
2022/12/02 04:17:40;;;;;;;34.05;17.65;;;3.00;99.90;;;;;;5022727;28;20073;-27
2022/12/02 04:20:07;;;;;;;37.28;18.75;;;2.90;99.90;;;;;;5036555;28;20068;-27
2022/12/02 04:22:34;;;;;;;35.17;18.08;;;2.90;99.90;;;;;;5029440;28;20088;-27
2022/12/02 04:25:01;;;;;;;34.22;17.80;;;2.90;99.90;;;;;;5025010;28;20041;-27
2022/12/02 04:27:27;;;;;;;36.97;17.80;;;2.90;99.90;;;;;;5046657;28;20103;-27
2022/12/02 04:29:53;;;;;;;40.55;19.63;;;2.90;99.90;;;;;;5025713;28;20108;-27
2022/12/02 04:32:20;;;;;;;37.55;18.55;;;2.90;99.90;;;;;;5046887;28;20037;-27
2022/12/02 04:34:46;;;;;;;41.13;18.27;;;2.80;99.90;;;;;;5022954;28;20430;-27
2022/12/02 04:37:12;;;;;;;37.50;17.98;;;2.80;99.90;;;;;;5026099;28;20038;-27
2022/12/02 04:39:37;;;;;;;39.35;18.75;;;2.80;99.90;;;;;;5026969;28;20041;-27
2022/12/02 04:42:03;;;;;;;36.92;18.70;;;2.80;99.90;;;;;;5038366;28;20110;-27
2022/12/02 04:44:29;;;;;;;38.15;19.15;;;2.80;99.90;;;;;;5028045;28;20037;-27
2022/12/02 04:46:54;;;;;;;40.95;20.65;;;2.70;99.90;;;;;;5022299;28;20053;-27
2022/12/02 04:49:20;;;;;;;44.00;20.38;;;2.70;99.90;;;;;;5025286;28;20049;-27
2022/12/02 04:51:46;;;;;;;44.08;20.55;;;2.70;99.90;;;;;;5044917;28;20094;-27
2022/12/02 04:54:11;;;;;;;45.88;20.20;;;2.70;99.90;;;;;;5027757;28;20376;-27
2022/12/02 04:56:37;;;;;;;45.60;20.08;;;2.70;99.90;;;;;;5023375;28;20026;-27
2022/12/02 04:59:03;;;;;;;43.22;21.00;;;2.70;99.90;;;;;;5029345;28;20491;-27
2022/12/02 05:01:29;;;;;;;47.58;21.88;;;2.70;99.90;;;;;;5030673;28;20094;-27
2022/12/02 05:03:54;;;;;;;45.45;20.67;;;2.70;99.90;;;;;;5035105;28;20123;-27
2022/12/02 05:06:20;;;;;;;44.65;20.98;;;2.60;99.90;;;;;;5038014;28;20119;-27
2022/12/02 05:08:46;;;;;;;46.22;20.05;;;2.60;99.90;;;;;;5022493;28;20507;-27
2022/12/02 05:11:11;;;;;;;43.85;21.10;;;2.60;99.90;;;;;;5029346;28;20036;-27
2022/12/02 05:13:37;;;;;;;49.10;21.08;;;2.60;99.90;;;;;;5039882;28;20394;-27
2022/12/02 05:16:03;;;;;;;46.58;21.00;;;2.60;99.90;;;;;;5018263;28;20038;-27
2022/12/02 05:18:29;;;;;;;41.08;19.60;;;2.60;99.90;;;;;;5041844;28;20037;-27
2022/12/02 05:20:54;;;;;;;46.75;22.17;;;2.60;99.90;;;;;;5026284;28;20069;-27
2022/12/02 05:23:20;;;;;;;50.20;21.77;;;2.60;99.90;;;;;;5026645;28;20047;-27
2022/12/02 05:25:46;;;;;;;48.65;20.60;;;2.60;99.90;;;;;;5028847;28;20491;-27
2022/12/02 05:28:11;;;;;;;45.90;20.85;;;2.60;99.90;;;;;;5039228;28;20076;-27
2022/12/02 05:30:37;;;;;;;48.33;21.25;;;2.50;99.90;;;;;;5045511;28;20548;-27
2022/12/02 05:33:03;;;;;;;45.65;21.25;;;2.50;99.90;;;;;;5028208;28;20037;-27
2022/12/02 05:35:32;;;;;;;51.85;22.75;;;2.50;99.90;;;;;;5043903;28;20077;-27
2022/12/02 05:37:57;;;;;;;51.40;21.98;;;2.50;99.90;;;;;;5028932;28;20033;-27
2022/12/02 05:40:23;;;;;;;45.97;22.15;;;2.60;99.90;;;;;;5025742;28;20042;-27
2022/12/02 05:42:49;;;;;;;44.35;20.42;;;2.50;99.90;;;;;;5025924;28;20040;-27
2022/12/02 05:45:19;;;;;;;50.30;21.25;;;2.50;99.90;;;;;;5024890;28;20534;-27
2022/12/02 05:47:51;;;;;;;45.67;20.60;;;2.50;99.90;;;;;;5027692;28;20098;-27
2022/12/02 05:50:18;;;;;;;55.17;23.85;;;2.60;99.90;;;;;;5027815;28;20041;-27
2022/12/02 05:52:44;;;;;;;49.88;21.00;;;2.60;99.90;;;;;;5026504;28;20113;-27
2022/12/02 05:55:19;;;;;;;45.42;19.73;;;2.60;99.90;;;;;;5044743;28;20124;-27
2022/12/02 05:57:45;;;;;;;50.88;22.45;;;2.60;99.90;;;;;;5026810;28;20044;-27
2022/12/02 06:00:17;;;;;;;53.33;21.40;;;2.60;99.90;;;;;;5030884;28;20029;-27
2022/12/02 06:02:45;;;;;;;52.17;21.15;;;2.60;99.90;;;;;;5025805;28;20195;-27
2022/12/02 06:05:22;;;;;;;49.70;21.17;;;2.60;99.90;;;;;;5031489;28;20033;-27
2022/12/02 06:07:51;;;;;;;48.28;20.55;;;2.60;99.90;;;;;;5025177;28;20091;-27
2022/12/02 06:10:30;;;;;;;52.95;21.95;;;2.60;99.90;;;;;;5032017;28;20125;-27
2022/12/02 06:13:19;;;;;;;45.25;20.52;;;2.60;99.90;;;;;;5026778;28;20040;-27
2022/12/02 06:15:45;;;;;;;47.53;21.75;;;2.60;99.90;;;;;;5037753;28;20045;-27
2022/12/02 06:18:16;;;;;;;45.90;22.33;;;2.60;99.90;;;;;;5020516;28;20034;-27
2022/12/02 06:20:43;;;;;;;54.55;22.83;;;2.60;99.90;;;;;;5016672;28;20038;-27
2022/12/02 06:23:13;;;;;;;50.65;20.63;;;2.60;99.90;;;;;;5032025;28;20037;-27
2022/12/02 06:25:40;;;;;;;52.97;22.63;;;2.60;99.90;;;;;;5032430;28;20068;-27
2022/12/02 06:28:49;;;;;;;54.97;22.90;;;2.60;99.90;;;;;;5047120;28;20098;-27
2022/12/02 06:31:22;;;;;;;52.47;22.00;;;2.60;99.90;;;;;;4973119;28;20525;-27
2022/12/02 06:33:51;;;;;;;51.40;24.05;;;2.60;99.90;;;;;;4975270;28;20440;-27
2022/12/02 06:36:18;;;;;;;52.50;22.38;;;2.60;99.90;;;;;;5000286;28;20042;-27
2022/12/02 06:38:55;;;;;;;55.72;23.17;;;2.60;99.90;;;;;;5028784;28;20121;-27
2022/12/02 06:41:23;;;;;;;48.83;22.75;;;2.50;99.90;;;;;;5030514;28;20033;-27
2022/12/02 06:46:36;;;;;;;56.63;24.45;;;2.60;99.90;;;;;;5028588;28;20080;-27
2022/12/02 06:49:13;;;;;;;49.08;23.10;;;2.60;99.90;;;;;;5026613;28;20048;-27
2022/12/02 06:51:39;;;;;;;57.75;24.48;;;2.60;99.90;;;;;;5031407;28;20033;-27
2022/12/02 06:54:18;;;;;;;54.92;25.40;;;2.50;99.90;;;;;;5032048;28;20570;-27
2022/12/02 06:56:43;;;;;;;57.70;24.27;;;2.50;99.90;;;;;;5029256;28;20037;-27
2022/12/02 06:59:13;;;;;;;59.25;24.67;;;2.50;99.90;;;;;;5027556;28;20033;-27
2022/12/02 07:01:41;;;;;;;57.78;24.50;;;2.50;99.90;;;;;;5045638;28;20042;-27
2022/12/02 07:04:07;;;;;;;54.67;25.13;;;2.50;99.90;;;;;;5031573;28;20422;-27
2022/12/02 07:06:39;;;;;;;53.35;23.58;;;2.50;99.90;;;;;;5028458;28;20046;-27
2022/12/02 07:09:28;;;;;;;58.10;25.08;;;2.50;99.90;;;;;;5028262;28;20037;-26
2022/12/02 07:11:54;;;;;;;55.65;24.85;;;2.50;99.90;;;;;;5029344;28;20447;-27
2022/12/02 07:14:38;;;;;;;52.63;23.88;;;2.50;99.90;;;;;;5030925;28;20087;-27
2022/12/02 07:17:20;;;;;;;57.10;25.02;;;2.50;99.90;;;;;;5030939;28;20043;-27
2022/12/02 07:20:00;;;;;;;63.70;26.73;;;2.50;99.90;;;;;;5041940;28;20061;-27
2022/12/02 07:22:40;;;;;;;57.88;25.65;;;2.50;99.90;;;;;;5031865;28;20049;-27
2022/12/02 07:25:09;;;;;;;53.92;26.15;;;2.50;99.90;;;;;;5030259;28;20087;-27
2022/12/02 07:27:38;;;;;;;59.88;26.05;;;2.50;99.90;;;;;;5028559;28;20046;-27
2022/12/02 07:30:43;;;;;;;58.20;26.00;;;2.50;99.90;;;;;;5031043;28;20490;-27
2022/12/02 07:33:08;;;;;;;62.80;26.30;;;2.50;99.90;;;;;;5028296;28;20491;-27
2022/12/02 07:35:34;;;;;;;58.25;24.88;;;2.50;99.90;;;;;;5031322;28;20095;-27
2022/12/02 07:38:00;;;;;;;60.28;26.20;;;2.50;99.90;;;;;;5030564;28;20037;-27
2022/12/02 07:40:26;;;;;;;55.72;24.77;;;2.50;99.90;;;;;;5028778;28;20247;-27
2022/12/02 07:42:51;;;;;;;62.83;26.38;;;2.50;99.90;;;;;;5045869;28;20434;-27
2022/12/02 07:45:18;;;;;;;62.13;25.80;;;2.50;99.90;;;;;;5047454;28;20410;-27
2022/12/02 07:47:45;;;;;;;61.10;26.02;;;2.50;99.90;;;;;;5016824;28;20052;-27
2022/12/02 07:50:13;;;;;;;59.72;25.50;;;2.50;99.90;;;;;;5014043;28;20104;-27
2022/12/02 07:52:38;;;;;;;60.78;26.30;;;2.50;99.90;;;;;;5022831;28;20037;-27
2022/12/02 07:55:05;;;;;;;59.63;26.10;;;2.50;99.90;;;;;;5024824;28;20040;-27
2022/12/02 07:57:30;;;;;;;61.85;25.52;;;2.50;99.90;;;;;;5041470;28;20041;-27
2022/12/02 07:59:56;;;;;;;56.63;25.10;;;2.50;99.90;;;;;;5029986;28;20084;-27
2022/12/02 08:02:22;;;;;;;61.45;26.83;;;2.50;99.90;;;;;;5030294;28;20095;-27
2022/12/02 08:04:51;;;;;;;55.95;25.02;;;2.50;99.90;;;;;;5022350;28;20071;-27
2022/12/02 08:07:16;;;;;;;60.95;25.83;;;2.50;99.90;;;;;;5024021;28;20041;-27
2022/12/02 08:09:42;;;;;;;61.60;26.23;;;2.50;99.90;;;;;;5027682;28;20184;-27
2022/12/02 08:12:08;;;;;;;56.58;25.33;;;2.50;99.90;;;;;;5024695;28;20084;-27
2022/12/02 08:14:34;;;;;;;61.92;27.83;;;2.60;99.90;;;;;;5028814;28;20041;-27
2022/12/02 08:17:00;;;;;;;63.97;26.42;;;2.50;99.90;;;;;;5045413;28;20120;-27
2022/12/02 08:19:25;;;;;;;57.80;25.88;;;2.60;99.90;;;;;;5026978;28;20121;-27
2022/12/02 08:21:51;;;;;;;60.05;26.80;;;2.50;99.90;;;;;;5021790;28;20045;-27
2022/12/02 08:24:17;;;;;;;66.30;27.65;;;2.50;99.90;;;;;;5026714;28;20041;-27
2022/12/02 08:26:43;;;;;;;57.75;25.77;;;2.50;99.90;;;;;;5027715;28;20037;-27
2022/12/02 08:29:09;;;;;;;60.90;26.20;;;2.50;99.90;;;;;;5041134;28;20071;-27
2022/12/02 08:31:35;;;;;;;69.18;28.33;;;2.60;99.90;;;;;;5039264;28;20590;-27
2022/12/02 08:34:01;;;;;;;60.40;26.60;;;2.50;99.90;;;;;;5029067;28;20163;-27
2022/12/02 08:36:27;;;;;;;60.03;27.15;;;2.60;99.90;;;;;;5038260;28;20037;-27
2022/12/02 08:38:53;;;;;;;65.25;26.80;;;2.60;99.90;;;;;;5027988;28;20041;-27
2022/12/02 08:41:20;;;;;;;59.83;26.38;;;2.60;99.90;;;;;;5043437;28;20486;-27
2022/12/02 08:43:45;;;;;;;66.75;27.73;;;2.60;99.90;;;;;;5024466;28;20068;-27
2022/12/02 08:46:13;;;;;;;67.68;27.48;;;2.60;99.90;;;;;;5039844;28;20091;-27
2022/12/02 08:48:39;;;;;;;60.67;26.50;;;2.60;99.90;;;;;;5045955;28;20048;-27
2022/12/02 08:51:05;;;;;;;66.70;27.15;;;2.60;99.90;;;;;;5028798;28;20368;-27
2022/12/02 08:53:31;;;;;;;71.43;27.90;;;2.60;99.90;;;;;;5028948;28;20103;-27
2022/12/02 08:55:57;;;;;;;64.88;26.55;;;2.60;99.90;;;;;;5028390;28;20065;-27
2022/12/02 08:58:23;;;;;;;60.42;25.30;;;2.60;99.90;;;;;;5040706;28;20072;-27
2022/12/02 09:00:48;;;;;;;62.47;26.67;;;2.60;99.90;;;;;;5028278;28;20030;-27
2022/12/02 09:03:14;;;;;;;60.03;27.08;;;2.60;99.90;;;;;;5025314;28;20049;-26
2022/12/02 09:05:40;;;;;;;58.80;25.98;;;2.60;99.90;;;;;;5027556;28;20033;-27
2022/12/02 09:08:07;;;;;;;63.67;26.52;;;2.60;99.90;;;;;;5028890;28;20049;-27
2022/12/02 09:10:33;;;;;;;62.08;26.08;;;2.60;99.90;;;;;;5027476;28;20037;-27
2022/12/02 09:12:58;;;;;;;66.03;28.25;;;2.70;99.90;;;;;;5027780;28;20393;-27
2022/12/02 09:15:24;;;;;;;66.35;27.52;;;2.70;99.90;;;;;;5026970;28;20037;-27
2022/12/02 09:17:50;;;;;;;66.95;28.08;;;2.80;99.90;;;;;;5028546;28;20124;-27
2022/12/02 09:20:16;;;;;;;63.63;25.33;;;2.80;99.90;;;;;;5027620;28;20116;-27
2022/12/02 09:22:45;;;;;;;64.57;28.05;;;2.80;99.90;;;;;;5029718;28;20030;-27
2022/12/02 09:25:13;;;;;;;67.88;27.95;;;2.90;99.90;;;;;;5028964;28;20029;-27
2022/12/02 09:27:39;;;;;;;68.20;27.20;;;2.90;99.90;;;;;;5028345;28;20061;-27
2022/12/02 09:30:06;;;;;;;63.45;27.67;;;2.90;99.90;;;;;;5028932;28;20040;-27
2022/12/02 09:32:32;;;;;;;68.15;26.08;;;3.00;99.90;;;;;;5028556;28;20399;-27
2022/12/02 09:34:58;;;;;;;64.00;26.52;;;3.00;99.90;;;;;;5032068;28;20033;-27
2022/12/02 09:37:24;;;;;;;64.80;26.23;;;3.00;99.90;;;;;;5032109;28;20026;-27
2022/12/02 09:39:50;;;;;;;68.10;24.85;;;2.90;99.90;;;;;;5033136;28;20048;-27
2022/12/02 09:42:17;;;;;;;59.03;22.77;;;2.90;99.90;;;;;;5024753;28;20042;-27
2022/12/02 09:44:43;;;;;;;59.90;25.90;;;2.90;99.90;;;;;;5048346;28;20059;-27
2022/12/02 09:47:10;;;;;;;62.83;26.00;;;2.90;99.90;;;;;;5046595;28;20478;-27
2022/12/02 09:49:36;;;;;;;65.32;26.20;;;2.90;99.90;;;;;;5048775;28;20049;-27
2022/12/02 09:52:05;;;;;;;65.57;26.98;;;2.90;99.90;;;;;;5040573;28;20026;-27
2022/12/02 09:54:31;;;;;;;65.32;28.20;;;2.80;99.90;;;;;;5025597;28;20422;-27
2022/12/02 09:56:58;;;;;;;60.67;26.55;;;2.80;99.90;;;;;;5045788;28;20391;-27
2022/12/02 09:59:24;;;;;;;64.78;24.77;;;2.80;99.90;;;;;;5048756;28;20033;-27
2022/12/02 10:01:50;;;;;;;47.67;20.98;;;2.80;99.90;;;;;;5042538;28;20068;-27
2022/12/02 10:04:19;;;;;;;53.83;20.73;;;2.70;99.90;;;;;;5029585;28;20048;-27
2022/12/02 10:06:45;;;;;;;47.78;20.63;;;2.70;99.90;;;;;;5029743;28;20384;-27
2022/12/02 10:09:18;;;;;;;46.83;21.00;;;2.70;99.90;;;;;;5018126;28;20041;-27
2022/12/02 10:11:44;;;;;;;49.30;20.40;;;2.70;99.90;;;;;;5025980;28;20630;-27
2022/12/02 10:14:14;;;;;;;47.75;21.35;;;2.70;99.90;;;;;;5043938;28;20040;-27
2022/12/02 10:16:41;;;;;;;48.95;20.10;;;2.80;99.90;;;;;;5024736;28;20034;-27
2022/12/02 10:19:09;;;;;;;48.08;20.60;;;2.80;99.90;;;;;;5020975;28;20123;-27
2022/12/02 10:21:35;;;;;;;47.47;20.73;;;2.80;99.90;;;;;;5030124;28;20047;-27
2022/12/02 10:24:04;;;;;;;48.28;20.20;;;2.80;99.90;;;;;;5049080;28;20041;-27
2022/12/02 10:26:51;;;;;;;42.15;19.52;;;2.80;99.90;;;;;;5044255;28;20128;-27
2022/12/02 10:29:29;;;;;;;43.38;20.45;;;2.80;99.90;;;;;;5026390;28;20124;-27
2022/12/02 10:32:02;;;;;;;42.08;19.70;;;2.80;99.90;;;;;;5023858;28;20506;-26
2022/12/02 10:34:31;;;;;;;46.30;20.35;;;2.80;99.90;;;;;;5028891;28;20037;-27
2022/12/02 10:37:22;;;;;;;45.63;19.33;;;2.80;99.90;;;;;;5028837;28;20033;-27
2022/12/02 10:40:03;;;;;;;41.08;19.33;;;2.80;99.90;;;;;;5029878;28;20048;-27
2022/12/02 10:42:29;;;;;;;42.70;19.25;;;2.80;99.90;;;;;;5048640;28;20486;-27
2022/12/02 10:45:22;;;;;;;46.95;20.95;;;2.80;99.90;;;;;;5027125;28;20068;-27
2022/12/02 10:47:50;;;;;;;41.73;21.33;;;2.80;99.90;;;;;;5045586;28;20094;-27
2022/12/02 10:50:16;;;;;;;44.38;19.60;;;2.70;99.90;;;;;;5030380;28;20037;-26
2022/12/02 10:52:47;;;;;;;51.70;20.88;;;2.70;99.90;;;;;;5024991;28;20120;-27
2022/12/02 10:55:14;;;;;;;48.63;19.98;;;2.70;99.90;;;;;;5028616;28;20037;-27
2022/12/02 10:57:42;;;;;;;48.05;21.45;;;2.70;99.90;;;;;;5024566;28;20155;-27
2022/12/02 11:00:22;;;;;;;48.45;19.98;;;2.70;99.90;;;;;;5037741;28;20034;-27
2022/12/02 11:02:54;;;;;;;51.17;21.35;;;2.70;99.90;;;;;;5028779;28;20048;-27
2022/12/02 11:05:24;;;;;;;46.15;21.30;;;2.70;99.90;;;;;;5021106;28;20087;-27
2022/12/02 11:08:24;;;;;;;47.53;22.65;;;2.70;99.90;;;;;;5023325;28;20483;-27
2022/12/02 11:11:10;;;;;;;48.75;21.98;;;2.70;99.90;;;;;;5026527;28;20525;-27
2022/12/02 11:13:48;;;;;;;52.78;21.92;;;2.70;99.90;;;;;;5027711;28;20037;-27
2022/12/02 11:16:26;;;;;;;53.45;24.38;;;2.70;99.90;;;;;;5028071;28;20033;-27
2022/12/02 11:19:12;;;;;;;51.38;22.17;;;2.70;99.90;;;;;;5032606;28;20072;-27
2022/12/02 11:21:40;;;;;;;53.25;23.55;;;2.70;99.90;;;;;;5030820;28;20041;-27
2022/12/02 11:24:21;;;;;;;53.22;23.67;;;2.60;99.90;;;;;;5027619;28;20032;-27
2022/12/02 11:27:02;;;;;;;56.03;24.13;;;2.60;99.90;;;;;;5024665;28;20038;-27
2022/12/02 11:29:40;;;;;;;56.63;23.60;;;2.70;99.90;;;;;;5038246;28;20111;-27
2022/12/02 11:32:21;;;;;;;56.70;23.98;;;2.70;99.90;;;;;;5030650;28;20033;-27
2022/12/02 11:34:50;;;;;;;51.70;23.35;;;2.70;99.90;;;;;;5020191;28;20041;-27
2022/12/02 11:37:25;;;;;;;52.28;24.33;;;2.70;99.90;;;;;;5030006;28;20037;-27
2022/12/02 11:39:56;;;;;;;53.85;23.75;;;2.70;99.90;;;;;;5032463;28;20157;-27
2022/12/02 11:42:26;;;;;;;57.40;25.65;;;2.70;99.90;;;;;;5043402;28;20120;-27
2022/12/02 11:44:53;;;;;;;58.45;25.80;;;2.70;99.90;;;;;;5031133;28;20060;-27
2022/12/02 11:47:31;;;;;;;63.20;27.75;;;2.70;99.90;;;;;;5029759;28;20048;-27
2022/12/02 11:50:21;;;;;;;59.25;26.65;;;2.70;99.90;;;;;;5030893;28;20040;-27
2022/12/02 11:52:53;;;;;;;61.35;27.10;;;2.60;99.90;;;;;;5031019;28;20079;-27
2022/12/02 11:55:22;;;;;;;66.45;26.88;;;2.60;99.90;;;;;;5041276;28;20190;-27
2022/12/02 11:57:50;;;;;;;61.88;27.05;;;2.60;99.90;;;;;;5028928;28;20041;-27
2022/12/02 12:00:21;;;;;;;66.78;27.30;;;2.60;99.90;;;;;;5030187;28;20095;-27
2022/12/02 12:03:08;;;;;;;65.57;28.55;;;2.60;99.90;;;;;;5028674;28;20099;-27
2022/12/02 12:05:34;;;;;;;65.55;28.02;;;2.60;99.90;;;;;;5028564;28;20088;-27
2022/12/02 12:08:03;;;;;;;69.43;29.25;;;2.60;99.90;;;;;;5029827;28;20363;-26
2022/12/02 12:10:38;;;;;;;65.25;29.88;;;2.60;99.90;;;;;;5028695;28;20443;-27
2022/12/02 12:13:16;;;;;;;63.47;29.17;;;2.60;99.90;;;;;;5029282;28;20080;-27
2022/12/02 12:15:59;;;;;;;63.42;28.52;;;2.60;99.90;;;;;;5017713;28;20459;-27
2022/12/02 12:18:47;;;;;;;65.37;29.40;;;2.60;99.90;;;;;;5023715;28;20403;-27
2022/12/02 12:21:35;;;;;;;61.95;27.83;;;2.60;99.90;;;;;;5027048;28;20299;-27
2022/12/02 12:24:16;;;;;;;67.50;31.38;;;2.70;99.90;;;;;;5027645;28;20080;-27
2022/12/02 12:27:09;;;;;;;69.05;30.58;;;2.60;99.90;;;;;;5017430;28;20104;-27
2022/12/02 12:29:37;;;;;;;65.10;30.65;;;2.60;99.90;;;;;;5028697;28;20495;-27
2022/12/02 12:32:05;;;;;;;70.20;31.40;;;2.60;99.90;;;;;;5028786;28;20033;-27
2022/12/02 12:34:31;;;;;;;66.55;30.90;;;2.70;99.90;;;;;;5029044;28;20474;-27
2022/12/02 12:36:57;;;;;;;69.75;31.90;;;2.70;99.90;;;;;;5028378;28;20433;-27
2022/12/02 12:39:23;;;;;;;67.35;31.77;;;2.70;99.90;;;;;;5024481;28;20099;-27
2022/12/02 12:41:48;;;;;;;70.63;30.48;;;2.70;99.90;;;;;;5029001;28;20045;-27
2022/12/02 12:44:14;;;;;;;64.68;30.23;;;2.70;99.90;;;;;;5028443;28;20106;-26
2022/12/02 12:46:40;;;;;;;65.60;30.80;;;2.70;99.90;;;;;;5032812;28;20037;-27
2022/12/02 12:49:07;;;;;;;65.68;29.92;;;2.70;99.90;;;;;;5025316;28;20034;-27
2022/12/02 12:51:33;;;;;;;66.13;31.67;;;2.70;99.90;;;;;;5033951;28;20399;-27
2022/12/02 12:53:59;;;;;;;68.97;31.20;;;2.70;99.90;;;;;;5033179;28;20068;-27